ベルリン/テーゲル の空港の天気 - METARとTAF

ベルリン・テーゲル国際空港 ( EDDT / TXL ) - ドイツ ベルリン
飛行場実況気象(Metar)
観測時間01/23 06:20 CET (01/23 05:20 UTC)
風向・風速西 2m/s
視程3000m
天気現象もや
全天を覆う雲 雲底高度 120m
気温0℃
湿度93%
気圧1019hPa
METAREDDT 230520Z 26004KT 240V300 3000 BR OVC004 00/M01 Q1019 R88/19//95 TEMPO 2500 BR
過去の天気等 Google飛行場航空写真 Wunderground天気予報

過去48時間のMETAR

飛行場予報(TAF)
発表時間: 1/23 06:00 CET (1/23 05:00 UTC)
予報対象時間: 23日7時 CET ~ 24日7時 CET
風向・風速不定 1m/s
視程4,000m
天気現象もや
全天を覆う雲 雲底高度 90m
23日7時 CET ~ 23日13時 CET に一時的に
視程2,000m
天気現象もや
23日7時 CET ~ 23日11時 CET に 確率 30% で一時的に
視程1,200m
天気現象弱い霧雨 もや
全天を覆う雲 雲底高度 30m
23日10時 CET ~ 23日13時 CET に徐々に
風向・風速南南東 3m/s
視程6,000m
全天を覆う雲 雲底高度 150m
23日13時 CET ~ 23日15時 CET に徐々に
全天の8割程度の雲 雲底高度 300m
23日15時 CET ~ 23日18時 CET に徐々に
全天の8割程度の雲 雲底高度 460m
23日22時 CET ~ 24日1時 CET に徐々に
風向・風速南 7m/s
24日1時 CET ~ 24日7時 CET に一時的に
視程2,500m
天気現象弱い雨霧雨
全天の8割程度の雲 雲底高度 240m
TAF EDDT 230500Z 2306/2406 VRB02KT 4000 BR OVC003
TEMPO 2306/2312 2000 BR
PROB30 TEMPO 2306/2310 1200 -DZ BR OVC001
BECMG 2309/2312 16005KT 6000 OVC005
BECMG 2312/2314 BKN010
BECMG 2314/2317 BKN015
BECMG 2321/2324 18013KT
TEMPO 2400/2406 2500 -RADZ BKN008